createdAt,value
2022-12-24T00:01:22.956Z,42.45
2022-12-24T00:03:51.185Z,31.58
2022-12-24T00:06:21.381Z,35.70
2022-12-24T00:08:51.116Z,36.47
2022-12-24T00:11:19.883Z,38.22
2022-12-24T00:13:48.319Z,34.60
2022-12-24T00:16:16.445Z,38.30
2022-12-24T00:18:46.540Z,36.80
2022-12-24T00:21:15.996Z,38.03
2022-12-24T00:23:44.392Z,33.60
2022-12-24T00:26:14.476Z,43.03
2022-12-24T00:28:42.753Z,34.78
2022-12-24T00:31:12.625Z,34.75
2022-12-24T00:33:40.786Z,36.78
2022-12-24T00:36:09.861Z,35.63
2022-12-24T00:38:38.194Z,40.03
2022-12-24T00:41:24.613Z,36.88
2022-12-24T00:43:55.219Z,37.47
2022-12-24T00:46:23.697Z,33.42
2022-12-24T00:48:51.839Z,36.13
2022-12-24T00:51:20.728Z,33.90
2022-12-24T00:53:49.491Z,36.65
2022-12-24T00:56:17.558Z,36.95
2022-12-24T00:58:45.824Z,37.42
2022-12-24T01:01:15.924Z,38.00
2022-12-24T01:03:44.205Z,35.08
2022-12-24T01:06:12.944Z,34.40
2022-12-24T01:08:41.105Z,30.95
2022-12-24T01:11:11.021Z,32.55
2022-12-24T01:13:39.464Z,33.88
2022-12-24T01:16:18.010Z,39.58
2022-12-24T01:18:46.221Z,36.00
2022-12-24T01:21:14.313Z,34.55
2022-12-24T01:23:42.480Z,37.67
2022-12-24T01:26:12.611Z,36.90
2022-12-24T01:28:41.276Z,33.83
2022-12-24T01:31:13.118Z,36.33
2022-12-24T01:33:42.871Z,42.13
2022-12-24T01:36:11.776Z,39.50
2022-12-24T01:38:39.941Z,39.90
2022-12-24T01:41:28.063Z,36.88
2022-12-24T01:43:56.098Z,40.38
2022-12-24T01:46:30.036Z,35.60
2022-12-24T01:49:02.474Z,37.67
2022-12-24T01:51:36.843Z,37.38
2022-12-24T01:54:07.779Z,46.03
2022-12-24T01:56:38.272Z,38.78
2022-12-24T01:59:09.436Z,48.95
2022-12-24T02:01:37.917Z,40.38
2022-12-24T02:04:18.000Z,41.45
2022-12-24T02:06:46.390Z,40.97
2022-12-24T02:09:15.303Z,40.65
2022-12-24T02:11:44.967Z,45.97
2022-12-24T02:14:14.362Z,36.97
2022-12-24T02:16:50.121Z,34.20
2022-12-24T02:20:01.345Z,35.10
2022-12-24T02:22:42.761Z,38.08
2022-12-24T02:25:31.942Z,39.30
2022-12-24T02:28:07.720Z,52.22
2022-12-24T02:30:42.682Z,35.97
2022-12-24T02:33:19.477Z,50.92
2022-12-24T02:35:54.423Z,52.80
2022-12-24T02:38:28.417Z,33.75
2022-12-24T02:40:59.829Z,36.60
2022-12-24T02:43:32.495Z,33.35
2022-12-24T02:46:07.431Z,36.22
2022-12-24T02:48:37.905Z,32.97
2022-12-24T02:51:08.579Z,29.75
2022-12-24T02:53:37.607Z,33.60
2022-12-24T02:56:19.348Z,30.35
2022-12-24T02:59:01.471Z,37.25
2022-12-24T03:01:43.106Z,34.90
2022-12-24T03:04:39.453Z,34.55
2022-12-24T03:07:15.107Z,33.70
2022-12-24T03:10:01.235Z,41.80
2022-12-24T03:12:34.513Z,29.73
2022-12-24T03:15:04.488Z,33.08
2022-12-24T03:17:38.360Z,38.72
2022-12-24T03:20:09.417Z,36.60
2022-12-24T03:22:38.579Z,39.30
2022-12-24T03:25:07.266Z,39.75
2022-12-24T03:27:36.849Z,38.55
2022-12-24T03:30:09.184Z,39.72
2022-12-24T03:32:39.447Z,48.60
2022-12-24T03:35:09.691Z,61.75
2022-12-24T03:37:37.736Z,50.72
2022-12-24T03:40:06.862Z,55.47
2022-12-24T03:42:34.899Z,43.50
2022-12-24T03:45:02.981Z,49.58
2022-12-24T03:47:32.259Z,45.08
2022-12-24T03:50:01.892Z,43.13
2022-12-24T03:52:29.925Z,37.13
2022-12-24T03:54:57.984Z,38.00
2022-12-24T03:57:25.984Z,37.60
2022-12-24T03:59:54.033Z,39.92
2022-12-24T04:02:22.189Z,37.53
2022-12-24T04:04:50.320Z,48.60
2022-12-24T04:07:19.756Z,43.00
2022-12-24T04:09:47.792Z,45.63
2022-12-24T04:12:15.889Z,48.88
2022-12-24T04:14:43.962Z,59.75
2022-12-24T04:17:11.972Z,41.92
2022-12-24T04:19:40.016Z,45.13
2022-12-24T04:22:08.078Z,80.85
2022-12-24T04:24:37.462Z,69.10
2022-12-24T04:27:05.461Z,49.28
2022-12-24T04:29:33.495Z,54.13
2022-12-24T04:32:01.710Z,50.28
2022-12-24T04:34:29.862Z,54.67
2022-12-24T04:36:57.983Z,51.35
2022-12-24T04:39:26.093Z,51.80
2022-12-24T04:41:55.515Z,51.50
2022-12-24T04:44:23.575Z,49.97
2022-12-24T04:46:51.627Z,56.28
2022-12-24T04:49:19.663Z,48.80
2022-12-24T04:51:47.758Z,50.85
2022-12-24T04:54:15.876Z,52.00
2022-12-24T04:56:43.881Z,49.40
2022-12-24T04:59:13.269Z,53.15
2022-12-24T05:01:41.416Z,48.55
2022-12-24T05:04:11.273Z,47.38
2022-12-24T05:06:39.372Z,45.03
2022-12-24T05:09:07.450Z,49.30
2022-12-24T05:11:35.543Z,47.33
2022-12-24T05:14:03.649Z,46.38
2022-12-24T05:16:33.238Z,44.92
2022-12-24T05:19:01.271Z,49.97
2022-12-24T05:21:29.365Z,43.35
2022-12-24T05:24:15.316Z,46.63
2022-12-24T05:26:46.688Z,41.55
2022-12-24T05:29:14.751Z,42.05
2022-12-24T05:31:45.312Z,39.88
2022-12-24T05:34:14.251Z,39.00
2022-12-24T05:36:42.338Z,35.60
2022-12-24T05:39:15.998Z,33.90
2022-12-24T05:41:44.721Z,32.58
2022-12-24T05:44:12.794Z,34.50
2022-12-24T05:46:41.099Z,31.23
2022-12-24T05:49:10.661Z,32.92
2022-12-24T05:51:40.294Z,34.63
2022-12-24T05:54:09.360Z,31.92
2022-12-24T05:56:37.487Z,39.95
2022-12-24T05:59:05.544Z,33.17
2022-12-24T06:01:33.817Z,34.05
2022-12-24T06:04:01.902Z,35.72
2022-12-24T06:06:31.369Z,33.50
2022-12-24T06:08:59.647Z,37.15
2022-12-24T06:11:29.203Z,34.03
2022-12-24T06:13:57.688Z,36.70
2022-12-24T06:16:27.250Z,36.40
2022-12-24T06:18:55.547Z,41.55
2022-12-24T06:21:23.756Z,37.72
2022-12-24T06:23:53.521Z,39.97
2022-12-24T06:26:24.061Z,33.92
2022-12-24T06:28:53.059Z,32.78
2022-12-24T06:31:23.380Z,49.35
2022-12-24T06:33:52.310Z,41.60
2022-12-24T06:36:22.169Z,33.10
2022-12-24T06:38:52.311Z,35.92
2022-12-24T06:41:21.032Z,43.88
2022-12-24T06:43:50.750Z,46.35
2022-12-24T06:46:19.358Z,47.97
2022-12-24T06:48:48.477Z,37.75
2022-12-24T06:51:19.891Z,47.22
2022-12-24T06:53:50.531Z,48.50
2022-12-24T06:56:21.463Z,48.65
2022-12-24T06:58:50.222Z,39.63
2022-12-24T07:01:20.541Z,44.83
2022-12-24T07:03:48.964Z,45.42
2022-12-24T07:06:20.577Z,41.65
2022-12-24T07:08:48.637Z,46.15
2022-12-24T07:11:19.289Z,41.42
2022-12-24T07:13:47.693Z,57.25
2022-12-24T07:16:15.958Z,43.08
2022-12-24T07:18:44.410Z,45.80
2022-12-24T07:21:12.589Z,45.17
2022-12-24T07:23:40.643Z,45.72
2022-12-24T07:26:08.860Z,44.53
2022-12-24T07:28:38.262Z,49.38
2022-12-24T07:31:06.752Z,47.42
2022-12-24T07:33:34.814Z,58.33
2022-12-24T07:36:05.178Z,46.95
2022-12-24T07:38:34.259Z,47.97
2022-12-24T07:41:02.633Z,41.70
2022-12-24T07:43:30.666Z,42.88
2022-12-24T07:46:00.190Z,31.88
2022-12-24T07:48:31.846Z,46.08
2022-12-24T07:51:00.028Z,47.90
2022-12-24T07:53:29.776Z,46.70
2022-12-24T07:55:57.820Z,45.60
2022-12-24T07:58:26.180Z,46.40
2022-12-24T08:00:59.602Z,53.28
2022-12-24T08:03:28.451Z,39.15
2022-12-24T08:05:57.508Z,39.08
2022-12-24T08:08:25.925Z,47.83
2022-12-24T08:10:54.400Z,47.20
2022-12-24T08:13:22.469Z,41.50
2022-12-24T08:15:50.606Z,43.70
2022-12-24T08:18:20.056Z,44.85
2022-12-24T08:20:48.578Z,44.55
2022-12-24T08:23:16.615Z,46.38
2022-12-24T08:25:45.439Z,43.53
2022-12-24T08:28:13.887Z,43.60
2022-12-24T08:30:41.990Z,49.72
2022-12-24T08:33:10.123Z,50.40
2022-12-24T08:35:39.602Z,38.38
2022-12-24T08:38:07.786Z,46.65
2022-12-24T08:40:35.875Z,41.03
2022-12-24T08:43:03.904Z,44.53
2022-12-24T08:45:37.894Z,44.78
2022-12-24T08:48:08.803Z,34.50
2022-12-24T08:50:39.494Z,43.47
2022-12-24T08:53:09.236Z,41.67
2022-12-24T08:55:38.003Z,57.08
2022-12-24T08:58:06.616Z,41.45
2022-12-24T09:00:34.956Z,43.90
2022-12-24T09:03:03.030Z,37.53
2022-12-24T09:05:31.124Z,44.35
2022-12-24T09:07:59.264Z,41.30
2022-12-24T09:10:28.688Z,50.17
2022-12-24T09:12:56.931Z,37.78
2022-12-24T09:15:25.036Z,42.88
2022-12-24T09:17:53.053Z,41.80
2022-12-24T09:20:21.153Z,46.38
2022-12-24T09:22:49.209Z,35.22
2022-12-24T09:25:17.342Z,47.15
2022-12-24T09:27:46.894Z,42.97
2022-12-24T09:30:16.174Z,41.63
2022-12-24T09:32:44.246Z,41.28
2022-12-24T09:35:12.283Z,47.97
2022-12-24T09:37:40.314Z,41.17
2022-12-24T09:40:17.034Z,41.05
2022-12-24T09:42:52.313Z,45.15
2022-12-24T09:45:26.529Z,36.97
2022-12-24T09:47:56.651Z,46.63
2022-12-24T09:50:40.583Z,40.13
2022-12-24T09:53:17.129Z,35.65
2022-12-24T09:55:48.932Z,37.30
2022-12-24T09:58:24.910Z,33.55
2022-12-24T10:00:53.538Z,36.10
2022-12-24T10:03:21.747Z,45.45
2022-12-24T10:06:08.040Z,41.60
2022-12-24T10:08:45.229Z,37.47
2022-12-24T10:11:20.531Z,34.53
2022-12-24T10:14:04.472Z,31.23
2022-12-24T10:16:42.741Z,44.92
2022-12-24T10:19:18.493Z,36.38
2022-12-24T10:22:00.050Z,39.22
2022-12-24T10:24:34.693Z,34.47
2022-12-24T10:27:06.919Z,36.65
2022-12-24T10:29:41.187Z,41.92
2022-12-24T10:32:19.049Z,41.08
2022-12-24T10:34:51.059Z,41.22
2022-12-24T10:37:23.612Z,45.03
2022-12-24T10:39:51.919Z,33.47
2022-12-24T10:42:21.487Z,40.13
2022-12-24T10:44:56.022Z,41.28
2022-12-24T10:47:25.455Z,37.83
2022-12-24T10:50:01.769Z,32.72
2022-12-24T10:52:35.206Z,38.10
2022-12-24T10:55:11.138Z,39.83
2022-12-24T10:57:40.128Z,37.70
2022-12-24T11:00:21.446Z,34.67
2022-12-24T11:02:51.081Z,39.00
2022-12-24T11:05:31.888Z,38.00
2022-12-24T11:08:03.763Z,35.28
2022-12-24T11:10:32.351Z,33.42
2022-12-24T11:13:35.666Z,33.53
2022-12-24T11:15:52.755Z,38.05
2022-12-24T11:18:20.886Z,29.92
2022-12-24T11:20:53.684Z,33.80
2022-12-24T11:23:23.920Z,35.00
2022-12-24T11:25:53.022Z,39.75
2022-12-24T11:28:23.797Z,38.78
2022-12-24T11:31:05.987Z,35.00
2022-12-24T11:33:48.147Z,32.17
2022-12-24T11:36:18.373Z,35.45
2022-12-24T11:38:54.365Z,33.03
2022-12-24T11:41:23.634Z,34.70
2022-12-24T11:43:58.728Z,36.67
2022-12-24T11:46:43.463Z,39.40
2022-12-24T11:49:18.633Z,27.48
2022-12-24T11:52:19.061Z,37.50
2022-12-24T11:55:15.638Z,36.30
2022-12-24T11:57:51.594Z,35.17
2022-12-24T12:00:19.867Z,26.25
2022-12-24T12:02:52.427Z,31.23
2022-12-24T12:05:23.699Z,24.17
2022-12-24T12:07:54.256Z,27.83
2022-12-24T12:10:25.074Z,28.25
2022-12-24T12:13:00.649Z,24.45
2022-12-24T12:15:34.123Z,28.45
2022-12-24T12:18:08.706Z,25.25
2022-12-24T12:20:40.973Z,24.23
2022-12-24T12:23:16.505Z,26.30
2022-12-24T12:25:48.714Z,22.75
2022-12-24T12:28:22.506Z,28.88
2022-12-24T12:31:01.837Z,30.98
2022-12-24T12:33:38.893Z,22.95
2022-12-24T12:36:09.423Z,29.75
2022-12-24T12:38:37.500Z,34.80
2022-12-24T12:41:18.892Z,32.50
2022-12-24T12:44:04.865Z,25.17
2022-12-24T12:46:41.697Z,29.80
2022-12-24T12:49:28.749Z,23.25
2022-12-24T12:52:03.656Z,27.40
2022-12-24T12:54:47.199Z,28.20
2022-12-24T12:57:19.889Z,23.75
2022-12-24T12:59:52.876Z,25.85
2022-12-24T13:02:42.193Z,23.90
2022-12-24T13:05:36.692Z,23.33
2022-12-24T13:08:20.508Z,21.30
2022-12-24T13:11:05.353Z,24.98
2022-12-24T13:14:06.873Z,26.00
2022-12-24T13:17:15.868Z,26.00
2022-12-24T13:19:59.298Z,27.58
2022-12-24T13:22:29.114Z,28.10
2022-12-24T13:24:57.873Z,28.67
2022-12-24T13:27:28.604Z,25.75
2022-12-24T13:30:02.205Z,29.55
2022-12-24T13:32:50.340Z,31.33
2022-12-24T13:35:37.174Z,28.80
2022-12-24T13:38:33.542Z,31.15
2022-12-24T13:41:41.856Z,26.92
2022-12-24T13:44:19.208Z,27.33
2022-12-24T13:46:58.024Z,32.30
2022-12-24T13:49:34.353Z,32.35
2022-12-24T13:52:22.677Z,33.05
2022-12-24T13:55:18.109Z,30.40
2022-12-24T13:57:57.789Z,25.98
2022-12-24T14:00:43.310Z,30.42
2022-12-24T14:03:33.027Z,31.00
2022-12-24T14:06:03.998Z,27.10
2022-12-24T14:08:37.805Z,28.00
2022-12-24T14:11:13.537Z,27.85
2022-12-24T14:14:15.127Z,29.23
2022-12-24T14:16:47.739Z,29.50
2022-12-24T14:19:21.006Z,29.45
2022-12-24T14:21:55.953Z,26.85
2022-12-24T14:24:27.216Z,30.73
2022-12-24T14:27:01.932Z,35.33
2022-12-24T14:29:33.119Z,33.95
2022-12-24T14:32:04.674Z,32.08
2022-12-24T14:34:33.036Z,20.33
2022-12-24T14:37:04.588Z,30.35
2022-12-24T14:39:35.632Z,30.60
2022-12-24T14:42:21.236Z,31.90
2022-12-24T14:44:58.706Z,34.40
2022-12-24T14:47:35.769Z,28.08
2022-12-24T14:50:33.038Z,36.55
2022-12-24T14:53:13.541Z,25.60
2022-12-24T14:55:49.266Z,29.33
2022-12-24T14:58:28.175Z,35.17
2022-12-24T15:00:58.236Z,34.60
2022-12-24T15:03:29.491Z,36.20
2022-12-24T15:06:00.482Z,26.52
2022-12-24T15:08:37.784Z,30.77
2022-12-24T15:11:08.263Z,29.98
2022-12-24T15:13:40.684Z,24.63
2022-12-24T15:16:11.383Z,24.38
2022-12-24T15:18:43.123Z,24.23
2022-12-24T15:21:18.343Z,32.50
2022-12-24T15:23:49.702Z,24.13
2022-12-24T15:26:24.154Z,23.83
2022-12-24T15:29:02.393Z,23.83
2022-12-24T15:31:32.357Z,20.00
2022-12-24T15:34:00.938Z,26.13
2022-12-24T15:36:32.494Z,28.67
2022-12-24T15:39:03.273Z,29.70
2022-12-24T15:41:59.197Z,23.55
2022-12-24T15:44:29.327Z,24.38
2022-12-24T15:47:00.307Z,29.25
2022-12-24T15:49:29.536Z,25.38
2022-12-24T15:52:04.739Z,30.08
2022-12-24T15:54:33.645Z,23.70
2022-12-24T15:57:14.199Z,20.77
2022-12-24T15:59:44.004Z,20.23
2022-12-24T16:02:35.062Z,25.92
2022-12-24T16:05:31.254Z,22.83
2022-12-24T16:08:23.867Z,23.65
2022-12-24T16:10:54.569Z,16.52
2022-12-24T16:13:24.827Z,17.95
2022-12-24T16:15:57.315Z,18.98
2022-12-24T16:18:27.558Z,25.38
2022-12-24T16:20:57.697Z,23.33
2022-12-24T16:23:38.304Z,20.23
2022-12-24T16:26:06.604Z,23.50
2022-12-24T16:28:34.677Z,21.83
2022-12-24T16:31:04.362Z,21.48
2022-12-24T16:33:32.675Z,23.17
2022-12-24T16:36:00.891Z,22.58
2022-12-24T16:38:49.023Z,19.50
2022-12-24T16:41:17.092Z,19.27
2022-12-24T16:43:50.094Z,19.75
2022-12-24T16:46:20.001Z,18.92
2022-12-24T16:48:49.634Z,18.60
2022-12-24T16:51:17.651Z,20.10
2022-12-24T16:53:45.681Z,21.65
2022-12-24T16:56:13.718Z,14.13
2022-12-24T16:58:41.766Z,24.90
2022-12-24T17:01:10.864Z,31.75
2022-12-24T17:03:40.456Z,25.90
2022-12-24T17:06:09.394Z,23.75
2022-12-24T17:08:37.648Z,28.27
2022-12-24T17:11:05.859Z,25.33
2022-12-24T17:13:33.838Z,21.58
2022-12-24T17:16:03.020Z,27.42
2022-12-24T17:18:31.087Z,24.75
2022-12-24T17:21:01.940Z,27.00
2022-12-24T17:23:30.359Z,30.85
2022-12-24T17:25:58.912Z,22.63
2022-12-24T17:28:26.948Z,25.95
2022-12-24T17:30:54.994Z,26.30
2022-12-24T17:33:23.070Z,24.63
2022-12-24T17:35:52.207Z,22.23
2022-12-24T17:38:21.629Z,24.55
2022-12-24T17:40:49.704Z,24.50
2022-12-24T17:43:17.912Z,24.02
2022-12-24T17:45:45.946Z,34.60
2022-12-24T17:48:13.962Z,25.85
2022-12-24T17:50:42.117Z,31.48
2022-12-24T17:53:10.175Z,24.92
2022-12-24T17:55:43.040Z,29.02
2022-12-24T17:58:11.590Z,25.08
2022-12-24T18:00:39.750Z,22.55
2022-12-24T18:03:07.860Z,33.17
2022-12-24T18:05:36.347Z,31.65
2022-12-24T18:08:04.678Z,23.00
2022-12-24T18:10:32.731Z,24.45
2022-12-24T18:13:02.177Z,29.67
2022-12-24T18:15:30.266Z,29.77
2022-12-24T18:17:59.341Z,25.40
2022-12-24T18:20:27.563Z,21.83
2022-12-24T18:22:55.616Z,27.73
2022-12-24T18:25:24.182Z,35.15
2022-12-24T18:27:52.420Z,24.33
2022-12-24T18:30:27.578Z,32.65
2022-12-24T18:32:56.254Z,30.38
2022-12-24T18:35:25.059Z,22.55
2022-12-24T18:37:53.446Z,27.00
2022-12-24T18:40:21.540Z,27.67
2022-12-24T18:42:49.673Z,33.95
2022-12-24T18:45:17.786Z,25.27
2022-12-24T18:47:47.175Z,36.75
2022-12-24T18:50:15.256Z,29.20
2022-12-24T18:52:43.286Z,30.73
2022-12-24T18:55:12.200Z,33.97
2022-12-24T18:57:40.233Z,30.10
2022-12-24T19:00:09.524Z,32.40
2022-12-24T19:02:37.643Z,33.38
2022-12-24T19:05:08.451Z,23.88
2022-12-24T19:07:36.511Z,29.45
2022-12-24T19:10:04.753Z,35.53
2022-12-24T19:12:32.852Z,37.30
2022-12-24T19:15:01.435Z,31.15
2022-12-24T19:17:29.850Z,30.58
2022-12-24T19:19:57.886Z,34.95
2022-12-24T19:22:28.623Z,30.77
2022-12-24T19:24:56.643Z,38.20
2022-12-24T19:27:24.677Z,35.35
2022-12-24T19:29:52.747Z,38.35
2022-12-24T19:32:20.828Z,30.65
2022-12-24T19:34:48.832Z,33.88
2022-12-24T19:37:16.902Z,35.92
2022-12-24T19:39:46.292Z,30.95
2022-12-24T19:42:14.339Z,45.15
2022-12-24T19:44:42.343Z,43.55
2022-12-24T19:47:10.369Z,29.83
2022-12-24T19:49:38.384Z,31.80
2022-12-24T19:52:06.457Z,43.75
2022-12-24T19:54:34.638Z,30.67
2022-12-24T19:57:04.023Z,41.20
2022-12-24T19:59:32.156Z,39.88
2022-12-24T20:02:00.346Z,34.22
2022-12-24T20:04:28.517Z,39.90
2022-12-24T20:07:00.503Z,28.58
2022-12-24T20:09:31.540Z,36.15
2022-12-24T20:11:59.618Z,34.90
2022-12-24T20:14:29.260Z,35.25
2022-12-24T20:16:57.497Z,41.10
2022-12-24T20:19:25.692Z,40.30
2022-12-24T20:21:53.842Z,42.67
2022-12-24T20:24:21.888Z,34.25
2022-12-24T20:26:49.953Z,33.47
2022-12-24T20:29:18.060Z,40.83
2022-12-24T20:31:47.560Z,32.13
2022-12-24T20:34:15.667Z,34.15
2022-12-24T20:36:44.046Z,39.78
2022-12-24T20:39:13.508Z,32.83
2022-12-24T20:41:41.581Z,38.95
2022-12-24T20:44:10.774Z,33.90
2022-12-24T20:46:38.975Z,36.67
2022-12-24T20:49:08.380Z,37.88
2022-12-24T20:51:36.396Z,40.47
2022-12-24T20:54:04.596Z,50.13
2022-12-24T20:56:32.800Z,65.00
2022-12-24T20:59:02.048Z,48.78
2022-12-24T21:01:30.729Z,38.85
2022-12-24T21:04:04.551Z,40.50
2022-12-24T21:06:35.026Z,49.17
2022-12-24T21:09:03.778Z,43.15
2022-12-24T21:11:49.091Z,50.25
2022-12-24T21:14:18.201Z,40.10
2022-12-24T21:16:47.096Z,42.70
2022-12-24T21:19:18.024Z,52.67
2022-12-24T21:21:48.110Z,53.72
2022-12-24T21:24:17.138Z,52.70
2022-12-24T21:26:45.206Z,59.15
2022-12-24T21:29:14.670Z,54.25
2022-12-24T21:31:44.007Z,79.35
2022-12-24T21:34:12.088Z,53.17
2022-12-24T21:36:40.136Z,57.35
2022-12-24T21:39:09.626Z,62.70
2022-12-24T21:41:37.644Z,53.53
2022-12-24T21:44:05.843Z,60.17
2022-12-24T21:46:33.998Z,60.20
2022-12-24T21:49:19.403Z,52.25
2022-12-24T21:51:48.960Z,61.08
2022-12-24T21:54:26.959Z,56.42
2022-12-24T21:57:14.311Z,56.72
2022-12-24T21:59:43.047Z,45.65
2022-12-24T22:02:12.312Z,49.60
2022-12-24T22:04:40.779Z,57.95
2022-12-24T22:07:26.624Z,47.03
2022-12-24T22:10:13.549Z,49.63
2022-12-24T22:12:41.615Z,49.03
2022-12-24T22:15:10.554Z,51.50
2022-12-24T22:17:38.592Z,55.72
2022-12-24T22:20:08.076Z,49.45
2022-12-24T22:22:36.119Z,52.50
2022-12-24T22:25:05.962Z,58.47
2022-12-24T22:27:34.052Z,55.33
2022-12-24T22:30:02.061Z,47.95
2022-12-24T22:32:30.108Z,47.85
2022-12-24T22:34:58.122Z,45.63
2022-12-24T22:37:26.224Z,72.18
2022-12-24T22:39:54.280Z,57.45
2022-12-24T22:42:23.720Z,57.85
2022-12-24T22:44:51.791Z,51.00
2022-12-24T22:47:20.007Z,55.27
2022-12-24T22:49:49.444Z,59.17
2022-12-24T22:52:17.788Z,58.70
2022-12-24T22:54:45.932Z,60.83
2022-12-24T22:57:13.935Z,53.90
2022-12-24T22:59:43.516Z,56.83
2022-12-24T23:02:12.083Z,48.20
2022-12-24T23:04:41.811Z,57.85
2022-12-24T23:07:12.027Z,57.47
2022-12-24T23:09:40.626Z,55.78
2022-12-24T23:12:09.311Z,65.93
2022-12-24T23:14:55.016Z,55.65
2022-12-24T23:17:24.409Z,61.93
2022-12-24T23:19:52.460Z,61.27
2022-12-24T23:22:20.472Z,51.67
2022-12-24T23:24:48.555Z,58.77
2022-12-24T23:27:16.648Z,51.73
2022-12-24T23:29:44.672Z,65.18
2022-12-24T23:32:12.753Z,58.23
2022-12-24T23:34:42.244Z,67.90
2022-12-24T23:37:10.276Z,76.63
2022-12-24T23:39:38.345Z,63.40
2022-12-24T23:42:06.450Z,74.80
2022-12-24T23:44:34.520Z,71.05
2022-12-24T23:47:02.714Z,51.77
2022-12-24T23:49:30.805Z,65.83
2022-12-24T23:52:00.191Z,59.88
2022-12-24T23:54:28.452Z,73.32
2022-12-24T23:56:56.517Z,72.05
2022-12-24T23:59:24.558Z,55.72
